sensor_id;sensor_type;location;lat;lon;timestamp;temperature;humidity
72380;SHT30;60354;47.798;12.472;2023-06-01T00:02:02;14.95;78.25
72380;SHT30;60354;47.798;12.472;2023-06-01T00:04:27;14.99;77.40
72380;SHT30;60354;47.798;12.472;2023-06-01T00:06:53;14.83;78.13
72380;SHT30;60354;47.798;12.472;2023-06-01T00:09:18;14.88;77.79
72380;SHT30;60354;47.798;12.472;2023-06-01T00:11:44;14.80;77.98
72380;SHT30;60354;47.798;12.472;2023-06-01T00:14:09;14.68;78.56
72380;SHT30;60354;47.798;12.472;2023-06-01T00:16:35;14.68;78.74
72380;SHT30;60354;47.798;12.472;2023-06-01T00:19:01;14.57;79.47
72380;SHT30;60354;47.798;12.472;2023-06-01T00:21:29;14.48;79.48
72380;SHT30;60354;47.798;12.472;2023-06-01T00:23:57;14.68;79.04
72380;SHT30;60354;47.798;12.472;2023-06-01T00:26:23;14.70;78.79
72380;SHT30;60354;47.798;12.472;2023-06-01T00:28:50;14.70;79.03
72380;SHT30;60354;47.798;12.472;2023-06-01T00:31:15;14.57;79.30
72380;SHT30;60354;47.798;12.472;2023-06-01T00:33:41;14.47;79.68
72380;SHT30;60354;47.798;12.472;2023-06-01T00:36:06;14.61;78.70
72380;SHT30;60354;47.798;12.472;2023-06-01T00:38:32;14.38;79.11
72380;SHT30;60354;47.798;12.472;2023-06-01T00:40:57;14.43;78.84
72380;SHT30;60354;47.798;12.472;2023-06-01T00:43:23;14.22;79.51
72380;SHT30;60354;47.798;12.472;2023-06-01T00:45:49;14.17;79.84
72380;SHT30;60354;47.798;12.472;2023-06-01T00:48:16;14.15;79.87
72380;SHT30;60354;47.798;12.472;2023-06-01T00:50:42;14.16;80.05
72380;SHT30;60354;47.798;12.472;2023-06-01T00:53:12;13.88;80.81
72380;SHT30;60354;47.798;12.472;2023-06-01T00:55:40;13.94;79.92
72380;SHT30;60354;47.798;12.472;2023-06-01T00:58:06;13.95;80.66
72380;SHT30;60354;47.798;12.472;2023-06-01T01:00:32;13.83;80.95
72380;SHT30;60354;47.798;12.472;2023-06-01T01:02:57;13.90;80.56
72380;SHT30;60354;47.798;12.472;2023-06-01T01:05:26;14.16;79.58
72380;SHT30;60354;47.798;12.472;2023-06-01T01:08:18;14.17;79.33
72380;SHT30;60354;47.798;12.472;2023-06-01T01:11:04;14.26;79.09
72380;SHT30;60354;47.798;12.472;2023-06-01T01:13:44;14.04;80.20
72380;SHT30;60354;47.798;12.472;2023-06-01T01:30:21;13.88;79.58
72380;SHT30;60354;47.798;12.472;2023-06-01T01:32:48;13.78;79.97
72380;SHT30;60354;47.798;12.472;2023-06-01T01:35:17;13.71;80.63
72380;SHT30;60354;47.798;12.472;2023-06-01T01:37:52;13.81;79.82
72380;SHT30;60354;47.798;12.472;2023-06-01T01:40:18;13.90;79.38
72380;SHT30;60354;47.798;12.472;2023-06-01T01:42:44;13.86;79.44
72380;SHT30;60354;47.798;12.472;2023-06-01T01:45:10;13.99;78.65
72380;SHT30;60354;47.798;12.472;2023-06-01T01:50:27;13.78;79.92
72380;SHT30;60354;47.798;12.472;2023-06-01T01:52:55;13.65;79.87
72380;SHT30;60354;47.798;12.472;2023-06-01T01:55:23;13.64;79.88
72380;SHT30;60354;47.798;12.472;2023-06-01T01:57:54;13.45;81.51
72380;SHT30;60354;47.798;12.472;2023-06-01T02:00:21;13.38;80.63
72380;SHT30;60354;47.798;12.472;2023-06-01T02:02:47;13.48;80.23
72380;SHT30;60354;47.798;12.472;2023-06-01T02:05:12;13.57;80.03
72380;SHT30;60354;47.798;12.472;2023-06-01T02:07:38;13.43;80.50
72380;SHT30;60354;47.798;12.472;2023-06-01T02:10:05;13.43;80.17
72380;SHT30;60354;47.798;12.472;2023-06-01T02:12:31;13.45;80.60
72380;SHT30;60354;47.798;12.472;2023-06-01T02:14:56;13.51;80.26
72380;SHT30;60354;47.798;12.472;2023-06-01T02:17:22;13.54;79.62
72380;SHT30;60354;47.798;12.472;2023-06-01T02:19:50;13.38;79.44
72380;SHT30;60354;47.798;12.472;2023-06-01T02:22:16;13.31;81.06
72380;SHT30;60354;47.798;12.472;2023-06-01T02:24:41;13.26;80.56
72380;SHT30;60354;47.798;12.472;2023-06-01T02:27:07;13.03;82.03
72380;SHT30;60354;47.798;12.472;2023-06-01T02:29:32;12.95;82.01
72380;SHT30;60354;47.798;12.472;2023-06-01T02:31:58;13.02;80.90
72380;SHT30;60354;47.798;12.472;2023-06-01T02:34:24;13.13;80.50
72380;SHT30;60354;47.798;12.472;2023-06-01T02:36:49;13.13;80.53
72380;SHT30;60354;47.798;12.472;2023-06-01T02:39:16;13.13;80.67
72380;SHT30;60354;47.798;12.472;2023-06-01T02:41:42;13.08;80.68
72380;SHT30;60354;47.798;12.472;2023-06-01T02:44:08;13.18;79.69
72380;SHT30;60354;47.798;12.472;2023-06-01T02:46:33;13.28;79.44
72380;SHT30;60354;47.798;12.472;2023-06-01T02:49:00;13.21;79.50
72380;SHT30;60354;47.798;12.472;2023-06-01T02:51:25;13.11;80.44
72380;SHT30;60354;47.798;12.472;2023-06-01T02:54:00;13.10;80.58
72380;SHT30;60354;47.798;12.472;2023-06-01T02:56:26;13.08;81.19
72380;SHT30;60354;47.798;12.472;2023-06-01T02:59:13;13.04;80.33
72380;SHT30;60354;47.798;12.472;2023-06-01T03:01:45;13.06;80.77
72380;SHT30;60354;47.798;12.472;2023-06-01T03:04:11;13.00;81.54
72380;SHT30;60354;47.798;12.472;2023-06-01T03:06:38;12.97;80.81
72380;SHT30;60354;47.798;12.472;2023-06-01T03:09:25;12.90;81.40
72380;SHT30;60354;47.798;12.472;2023-06-01T03:11:57;12.97;80.52
72380;SHT30;60354;47.798;12.472;2023-06-01T03:14:22;12.97;80.94
72380;SHT30;60354;47.798;12.472;2023-06-01T03:16:48;12.95;81.32
72380;SHT30;60354;47.798;12.472;2023-06-01T03:19:18;13.00;80.87
72380;SHT30;60354;47.798;12.472;2023-06-01T03:21:46;12.83;81.11
72380;SHT30;60354;47.798;12.472;2023-06-01T03:24:12;12.73;81.03
72380;SHT30;60354;47.798;12.472;2023-06-01T03:26:38;12.73;81.22
72380;SHT30;60354;47.798;12.472;2023-06-01T03:29:03;12.83;80.66
72380;SHT30;60354;47.798;12.472;2023-06-01T03:31:31;12.92;80.05
72380;SHT30;60354;47.798;12.472;2023-06-01T03:34:00;12.73;80.69
72380;SHT30;60354;47.798;12.472;2023-06-01T03:36:26;12.69;81.08
72380;SHT30;60354;47.798;12.472;2023-06-01T03:38:51;12.69;81.09
72380;SHT30;60354;47.798;12.472;2023-06-01T03:41:20;12.69;81.77
72380;SHT30;60354;47.798;12.472;2023-06-01T03:43:45;12.59;81.55
72380;SHT30;60354;47.798;12.472;2023-06-01T03:46:11;12.42;82.61
72380;SHT30;60354;47.798;12.472;2023-06-01T03:48:37;12.36;82.56
72380;SHT30;60354;47.798;12.472;2023-06-01T03:51:02;12.44;82.57
72380;SHT30;60354;47.798;12.472;2023-06-01T03:53:29;12.38;82.51
72380;SHT30;60354;47.798;12.472;2023-06-01T03:55:57;12.46;82.19
72380;SHT30;60354;47.798;12.472;2023-06-01T03:58:29;12.57;81.62
72380;SHT30;60354;47.798;12.472;2023-06-01T04:00:55;12.63;81.75
72380;SHT30;60354;47.798;12.472;2023-06-01T04:03:22;12.67;81.80
72380;SHT30;60354;47.798;12.472;2023-06-01T04:05:49;12.76;81.46
72380;SHT30;60354;47.798;12.472;2023-06-01T04:08:24;12.69;81.68
72380;SHT30;60354;47.798;12.472;2023-06-01T04:10:51;12.69;81.92
72380;SHT30;60354;47.798;12.472;2023-06-01T04:13:16;12.59;82.41
72380;SHT30;60354;47.798;12.472;2023-06-01T04:15:42;12.73;82.10
72380;SHT30;60354;47.798;12.472;2023-06-01T04:18:08;12.72;81.72
72380;SHT30;60354;47.798;12.472;2023-06-01T04:20:47;12.80;81.97
72380;SHT30;60354;47.798;12.472;2023-06-01T04:23:14;12.92;82.12
72380;SHT30;60354;47.798;12.472;2023-06-01T04:25:41;12.92;82.33
72380;SHT30;60354;47.798;12.472;2023-06-01T04:28:09;12.90;82.80
72380;SHT30;60354;47.798;12.472;2023-06-01T04:30:35;12.99;82.98
72380;SHT30;60354;47.798;12.472;2023-06-01T04:33:01;13.04;82.62
72380;SHT30;60354;47.798;12.472;2023-06-01T04:35:28;13.21;82.39
72380;SHT30;60354;47.798;12.472;2023-06-01T04:37:56;13.30;82.25
72380;SHT30;60354;47.798;12.472;2023-06-01T04:40:21;13.38;82.13
72380;SHT30;60354;47.798;12.472;2023-06-01T04:42:47;13.51;82.16
72380;SHT30;60354;47.798;12.472;2023-06-01T04:45:21;13.58;81.82
72380;SHT30;60354;47.798;12.472;2023-06-01T04:47:47;13.59;81.98
72380;SHT30;60354;47.798;12.472;2023-06-01T04:50:29;13.69;81.49
72380;SHT30;60354;47.798;12.472;2023-06-01T04:52:55;13.76;81.16
72380;SHT30;60354;47.798;12.472;2023-06-01T04:55:20;13.74;81.89
72380;SHT30;60354;47.798;12.472;2023-06-01T04:57:46;13.82;81.32
72380;SHT30;60354;47.798;12.472;2023-06-01T05:00:13;13.89;80.77
72380;SHT30;60354;47.798;12.472;2023-06-01T05:02:44;13.86;81.20
72380;SHT30;60354;47.798;12.472;2023-06-01T05:05:11;13.90;81.83
72380;SHT30;60354;47.798;12.472;2023-06-01T05:07:38;13.96;81.68
72380;SHT30;60354;47.798;12.472;2023-06-01T05:10:05;14.04;81.16
72380;SHT30;60354;47.798;12.472;2023-06-01T05:12:38;14.09;81.18
72380;SHT30;60354;47.798;12.472;2023-06-01T05:15:06;14.22;81.11
72380;SHT30;60354;47.798;12.472;2023-06-01T05:17:33;14.43;80.83
72380;SHT30;60354;47.798;12.472;2023-06-01T05:20:01;14.63;80.44
72380;SHT30;60354;47.798;12.472;2023-06-01T05:22:26;14.92;79.49
72380;SHT30;60354;47.798;12.472;2023-06-01T05:24:52;15.21;78.46
72380;SHT30;60354;47.798;12.472;2023-06-01T05:27:17;15.50;77.93
72380;SHT30;60354;47.798;12.472;2023-06-01T05:29:43;15.79;77.39
72380;SHT30;60354;47.798;12.472;2023-06-01T05:32:09;16.07;76.19
72380;SHT30;60354;47.798;12.472;2023-06-01T05:34:35;16.49;75.77
72380;SHT30;60354;47.798;12.472;2023-06-01T05:37:02;16.90;74.24
72380;SHT30;60354;47.798;12.472;2023-06-01T05:39:28;17.27;72.48
72380;SHT30;60354;47.798;12.472;2023-06-01T05:41:55;17.54;71.05
72380;SHT30;60354;47.798;12.472;2023-06-01T05:44:22;17.95;69.91
72380;SHT30;60354;47.798;12.472;2023-06-01T05:46:47;18.15;69.11
72380;SHT30;60354;47.798;12.472;2023-06-01T05:49:15;18.37;68.51
72380;SHT30;60354;47.798;12.472;2023-06-01T05:51:40;18.67;67.61
72380;SHT30;60354;47.798;12.472;2023-06-01T05:54:09;18.93;67.42
72380;SHT30;60354;47.798;12.472;2023-06-01T05:56:35;19.29;66.10
72380;SHT30;60354;47.798;12.472;2023-06-01T05:59:07;19.63;64.43
72380;SHT30;60354;47.798;12.472;2023-06-01T06:01:32;19.69;64.67
72380;SHT30;60354;47.798;12.472;2023-06-01T06:03:58;19.97;63.84
72380;SHT30;60354;47.798;12.472;2023-06-01T06:06:24;20.30;62.26
72380;SHT30;60354;47.798;12.472;2023-06-01T06:08:51;20.55;61.95
72380;SHT30;60354;47.798;12.472;2023-06-01T06:11:16;20.64;62.34
72380;SHT30;60354;47.798;12.472;2023-06-01T06:13:42;20.74;61.55
72380;SHT30;60354;47.798;12.472;2023-06-01T06:16:07;20.74;61.82
72380;SHT30;60354;47.798;12.472;2023-06-01T06:18:33;20.98;61.20
72380;SHT30;60354;47.798;12.472;2023-06-01T06:20:58;21.00;61.37
72380;SHT30;60354;47.798;12.472;2023-06-01T06:23:24;21.33;60.53
72380;SHT30;60354;47.798;12.472;2023-06-01T06:25:49;21.57;60.23
72380;SHT30;60354;47.798;12.472;2023-06-01T06:28:15;21.58;59.79
72380;SHT30;60354;47.798;12.472;2023-06-01T06:30:41;21.53;60.42
72380;SHT30;60354;47.798;12.472;2023-06-01T06:33:07;21.33;60.66
72380;SHT30;60354;47.798;12.472;2023-06-01T06:35:32;21.60;60.76
72380;SHT30;60354;47.798;12.472;2023-06-01T06:37:58;21.08;61.57
72380;SHT30;60354;47.798;12.472;2023-06-01T06:40:23;20.59;63.34
72380;SHT30;60354;47.798;12.472;2023-06-01T06:42:49;21.19;61.94
72380;SHT30;60354;47.798;12.472;2023-06-01T06:45:16;21.10;61.71
72380;SHT30;60354;47.798;12.472;2023-06-01T06:47:41;21.13;61.43
72380;SHT30;60354;47.798;12.472;2023-06-01T06:50:07;21.33;58.60
72380;SHT30;60354;47.798;12.472;2023-06-01T06:52:33;21.49;60.03
72380;SHT30;60354;47.798;12.472;2023-06-01T06:54:59;21.77;58.89
72380;SHT30;60354;47.798;12.472;2023-06-01T06:57:24;22.01;57.70
72380;SHT30;60354;47.798;12.472;2023-06-01T06:59:50;21.86;58.20
72380;SHT30;60354;47.798;12.472;2023-06-01T07:02:16;21.58;60.00
72380;SHT30;60354;47.798;12.472;2023-06-01T07:04:41;21.86;59.57
72380;SHT30;60354;47.798;12.472;2023-06-01T07:07:07;22.11;58.71
72380;SHT30;60354;47.798;12.472;2023-06-01T07:09:32;22.36;58.34
72380;SHT30;60354;47.798;12.472;2023-06-01T07:11:58;22.12;58.42
72380;SHT30;60354;47.798;12.472;2023-06-01T07:14:24;22.00;60.33
72380;SHT30;60354;47.798;12.472;2023-06-01T07:16:49;22.41;59.87
72380;SHT30;60354;47.798;12.472;2023-06-01T07:19:16;22.24;59.85
72380;SHT30;60354;47.798;12.472;2023-06-01T07:21:41;22.51;59.29
72380;SHT30;60354;47.798;12.472;2023-06-01T07:24:07;21.91;58.70
72380;SHT30;60354;47.798;12.472;2023-06-01T07:26:33;22.18;58.54
72380;SHT30;60354;47.798;12.472;2023-06-01T07:28:59;21.96;58.50
72380;SHT30;60354;47.798;12.472;2023-06-01T07:31:25;21.91;56.99
72380;SHT30;60354;47.798;12.472;2023-06-01T07:33:50;22.27;57.49
72380;SHT30;60354;47.798;12.472;2023-06-01T07:36:20;22.66;57.13
72380;SHT30;60354;47.798;12.472;2023-06-01T07:38:49;22.17;58.56
72380;SHT30;60354;47.798;12.472;2023-06-01T07:41:15;22.32;57.38
72380;SHT30;60354;47.798;12.472;2023-06-01T07:43:41;22.27;58.10
72380;SHT30;60354;47.798;12.472;2023-06-01T07:46:06;22.00;58.50
72380;SHT30;60354;47.798;12.472;2023-06-01T07:48:32;22.09;57.35
72380;SHT30;60354;47.798;12.472;2023-06-01T07:51:04;22.00;57.89
72380;SHT30;60354;47.798;12.472;2023-06-01T07:53:33;22.22;58.32
72380;SHT30;60354;47.798;12.472;2023-06-01T07:55:59;22.01;57.43
72380;SHT30;60354;47.798;12.472;2023-06-01T07:58:24;22.08;57.78
72380;SHT30;60354;47.798;12.472;2023-06-01T08:00:50;21.83;58.73
72380;SHT30;60354;47.798;12.472;2023-06-01T08:03:16;22.32;58.01
72380;SHT30;60354;47.798;12.472;2023-06-01T08:05:41;22.55;56.88
72380;SHT30;60354;47.798;12.472;2023-06-01T08:08:10;22.86;55.51
72380;SHT30;60354;47.798;12.472;2023-06-01T08:10:35;23.08;55.74
72380;SHT30;60354;47.798;12.472;2023-06-01T08:13:02;22.68;56.78
72380;SHT30;60354;47.798;12.472;2023-06-01T08:15:28;22.85;56.77
72380;SHT30;60354;47.798;12.472;2023-06-01T08:17:54;22.39;57.30
72380;SHT30;60354;47.798;12.472;2023-06-01T08:20:20;22.82;56.93
72380;SHT30;60354;47.798;12.472;2023-06-01T08:22:48;23.03;55.83
72380;SHT30;60354;47.798;12.472;2023-06-01T08:25:13;23.20;54.86
72380;SHT30;60354;47.798;12.472;2023-06-01T08:27:40;23.13;55.13
72380;SHT30;60354;47.798;12.472;2023-06-01T08:30:06;23.18;55.23
72380;SHT30;60354;47.798;12.472;2023-06-01T08:32:32;23.21;55.31
72380;SHT30;60354;47.798;12.472;2023-06-01T08:34:58;23.58;55.23
72380;SHT30;60354;47.798;12.472;2023-06-01T08:37:23;23.57;53.99
72380;SHT30;60354;47.798;12.472;2023-06-01T08:39:49;23.94;52.49
72380;SHT30;60354;47.798;12.472;2023-06-01T08:44:43;23.17;56.31
72380;SHT30;60354;47.798;12.472;2023-06-01T08:47:08;23.67;55.63
72380;SHT30;60354;47.798;12.472;2023-06-01T08:49:35;23.75;55.74
72380;SHT30;60354;47.798;12.472;2023-06-01T08:52:05;24.04;53.58
72380;SHT30;60354;47.798;12.472;2023-06-01T08:54:32;24.10;52.74
72380;SHT30;60354;47.798;12.472;2023-06-01T08:57:03;23.67;53.66
72380;SHT30;60354;47.798;12.472;2023-06-01T08:59:31;23.54;55.21
72380;SHT30;60354;47.798;12.472;2023-06-01T09:01:57;23.84;55.14
72380;SHT30;60354;47.798;12.472;2023-06-01T09:04:23;23.86;54.21
72380;SHT30;60354;47.798;12.472;2023-06-01T09:06:49;24.01;54.86
72380;SHT30;60354;47.798;12.472;2023-06-01T09:09:14;23.94;54.31
72380;SHT30;60354;47.798;12.472;2023-06-01T09:11:40;24.13;54.26
72380;SHT30;60354;47.798;12.472;2023-06-01T09:14:19;24.37;54.27
72380;SHT30;60354;47.798;12.472;2023-06-01T09:16:48;24.20;52.73
72380;SHT30;60354;47.798;12.472;2023-06-01T09:19:14;24.25;53.86
72380;SHT30;60354;47.798;12.472;2023-06-01T09:21:40;24.26;52.98
72380;SHT30;60354;47.798;12.472;2023-06-01T09:24:19;24.01;52.83
72380;SHT30;60354;47.798;12.472;2023-06-01T09:26:48;23.92;52.74
72380;SHT30;60354;47.798;12.472;2023-06-01T09:29:13;24.02;52.11
72380;SHT30;60354;47.798;12.472;2023-06-01T09:31:46;23.89;52.65
72380;SHT30;60354;47.798;12.472;2023-06-01T09:34:17;24.49;52.01
72380;SHT30;60354;47.798;12.472;2023-06-01T09:36:45;24.12;53.00
72380;SHT30;60354;47.798;12.472;2023-06-01T09:39:13;24.37;52.11
72380;SHT30;60354;47.798;12.472;2023-06-01T09:44:31;24.26;52.31
72380;SHT30;60354;47.798;12.472;2023-06-01T09:46:59;24.70;49.82
72380;SHT30;60354;47.798;12.472;2023-06-01T09:49:29;24.60;48.82
72380;SHT30;60354;47.798;12.472;2023-06-01T09:54:41;25.41;47.10
72380;SHT30;60354;47.798;12.472;2023-06-01T09:57:07;25.07;49.13
72380;SHT30;60354;47.798;12.472;2023-06-01T09:59:44;25.31;48.51
72380;SHT30;60354;47.798;12.472;2023-06-01T10:04:44;25.63;48.73
72380;SHT30;60354;47.798;12.472;2023-06-01T10:07:12;25.73;47.90
72380;SHT30;60354;47.798;12.472;2023-06-01T10:09:41;25.73;48.19
72380;SHT30;60354;47.798;12.472;2023-06-01T10:12:07;26.26;48.80
72380;SHT30;60354;47.798;12.472;2023-06-01T10:14:36;25.94;49.89
72380;SHT30;60354;47.798;12.472;2023-06-01T10:17:03;26.14;49.49
72380;SHT30;60354;47.798;12.472;2023-06-01T10:19:29;25.43;51.38
72380;SHT30;60354;47.798;12.472;2023-06-01T10:21:56;25.18;50.92
72380;SHT30;60354;47.798;12.472;2023-06-01T10:24:22;25.42;52.39
72380;SHT30;60354;47.798;12.472;2023-06-01T10:29:27;25.24;50.94
72380;SHT30;60354;47.798;12.472;2023-06-01T10:31:54;25.45;50.39
72380;SHT30;60354;47.798;12.472;2023-06-01T10:34:41;25.96;49.34
72380;SHT30;60354;47.798;12.472;2023-06-01T10:39:34;25.96;50.75
72380;SHT30;60354;47.798;12.472;2023-06-01T10:57:43;25.82;48.51
72380;SHT30;60354;47.798;12.472;2023-06-01T11:03:04;25.87;49.06
72380;SHT30;60354;47.798;12.472;2023-06-01T11:05:49;25.73;50.32
72380;SHT30;60354;47.798;12.472;2023-06-01T11:13:17;26.31;49.98
72380;SHT30;60354;47.798;12.472;2023-06-01T11:18:55;25.82;48.89
72380;SHT30;60354;47.798;12.472;2023-06-01T11:21:28;25.97;49.09
72380;SHT30;60354;47.798;12.472;2023-06-01T11:23:56;26.18;48.31
72380;SHT30;60354;47.798;12.472;2023-06-01T11:26:24;26.08;48.00
72380;SHT30;60354;47.798;12.472;2023-06-01T11:29:03;25.82;47.63
72380;SHT30;60354;47.798;12.472;2023-06-01T11:31:34;25.66;47.15
72380;SHT30;60354;47.798;12.472;2023-06-01T11:34:01;25.85;47.83
72380;SHT30;60354;47.798;12.472;2023-06-01T11:36:27;25.86;46.02
72380;SHT30;60354;47.798;12.472;2023-06-01T11:38:54;25.73;46.74
72380;SHT30;60354;47.798;12.472;2023-06-01T11:41:24;25.89;46.01
72380;SHT30;60354;47.798;12.472;2023-06-01T11:43:54;25.94;45.59
72380;SHT30;60354;47.798;12.472;2023-06-01T11:46:23;26.17;45.73
72380;SHT30;60354;47.798;12.472;2023-06-01T11:49:08;25.63;46.38
72380;SHT30;60354;47.798;12.472;2023-06-01T11:51:38;25.83;44.76
72380;SHT30;60354;47.798;12.472;2023-06-01T11:54:07;26.01;45.98
72380;SHT30;60354;47.798;12.472;2023-06-01T11:56:37;26.04;44.69
72380;SHT30;60354;47.798;12.472;2023-06-01T11:59:05;25.83;45.44
72380;SHT30;60354;47.798;12.472;2023-06-01T12:01:35;25.97;43.98
72380;SHT30;60354;47.798;12.472;2023-06-01T12:04:04;26.01;44.34
72380;SHT30;60354;47.798;12.472;2023-06-01T12:06:33;26.00;44.65
72380;SHT30;60354;47.798;12.472;2023-06-01T12:08:58;26.08;42.70
72380;SHT30;60354;47.798;12.472;2023-06-01T12:11:25;26.45;43.53
72380;SHT30;60354;47.798;12.472;2023-06-01T12:13:53;26.40;43.53
72380;SHT30;60354;47.798;12.472;2023-06-01T12:16:20;26.47;41.47
72380;SHT30;60354;47.798;12.472;2023-06-01T12:18:46;26.08;41.82
72380;SHT30;60354;47.798;12.472;2023-06-01T12:21:12;26.13;42.20
72380;SHT30;60354;47.798;12.472;2023-06-01T12:23:38;26.03;43.38
72380;SHT30;60354;47.798;12.472;2023-06-01T12:26:04;25.94;43.24
72380;SHT30;60354;47.798;12.472;2023-06-01T12:31:16;25.75;43.84
72380;SHT30;60354;47.798;12.472;2023-06-01T12:33:43;25.85;43.82
72380;SHT30;60354;47.798;12.472;2023-06-01T12:36:10;25.90;43.38
72380;SHT30;60354;47.798;12.472;2023-06-01T12:38:52;26.08;43.31
72380;SHT30;60354;47.798;12.472;2023-06-01T12:41:18;26.37;44.78
72380;SHT30;60354;47.798;12.472;2023-06-01T12:43:45;26.49;44.72
72380;SHT30;60354;47.798;12.472;2023-06-01T12:46:18;26.18;42.79
72380;SHT30;60354;47.798;12.472;2023-06-01T12:48:45;26.37;41.43
72380;SHT30;60354;47.798;12.472;2023-06-01T12:51:12;26.40;42.53
72380;SHT30;60354;47.798;12.472;2023-06-01T12:53:37;26.41;42.42
72380;SHT30;60354;47.798;12.472;2023-06-01T12:56:02;26.43;41.46
72380;SHT30;60354;47.798;12.472;2023-06-01T12:58:28;26.24;41.27
72380;SHT30;60354;47.798;12.472;2023-06-01T13:00:53;26.16;40.22
72380;SHT30;60354;47.798;12.472;2023-06-01T13:03:19;26.28;40.55
72380;SHT30;60354;47.798;12.472;2023-06-01T13:05:46;26.54;41.77
72380;SHT30;60354;47.798;12.472;2023-06-01T13:08:12;26.75;40.63
72380;SHT30;60354;47.798;12.472;2023-06-01T13:10:38;26.84;39.13
72380;SHT30;60354;47.798;12.472;2023-06-01T13:13:04;26.92;39.98
72380;SHT30;60354;47.798;12.472;2023-06-01T13:15:29;27.02;40.16
72380;SHT30;60354;47.798;12.472;2023-06-01T13:17:55;26.95;38.43
72380;SHT30;60354;47.798;12.472;2023-06-01T13:20:21;27.12;39.26
72380;SHT30;60354;47.798;12.472;2023-06-01T13:22:47;27.09;37.51
72380;SHT30;60354;47.798;12.472;2023-06-01T13:25:13;27.10;39.75
72380;SHT30;60354;47.798;12.472;2023-06-01T13:27:39;26.51;38.95
72380;SHT30;60354;47.798;12.472;2023-06-01T13:30:05;26.33;38.53
72380;SHT30;60354;47.798;12.472;2023-06-01T13:32:31;26.18;39.81
72380;SHT30;60354;47.798;12.472;2023-06-01T13:34:57;26.33;41.39
72380;SHT30;60354;47.798;12.472;2023-06-01T13:37:22;26.51;40.34
72380;SHT30;60354;47.798;12.472;2023-06-01T13:39:48;26.45;41.62
72380;SHT30;60354;47.798;12.472;2023-06-01T13:42:15;26.28;42.31
72380;SHT30;60354;47.798;12.472;2023-06-01T13:44:41;26.13;43.98
72380;SHT30;60354;47.798;12.472;2023-06-01T13:47:13;26.23;43.08
72380;SHT30;60354;47.798;12.472;2023-06-01T13:49:42;26.08;43.60
72380;SHT30;60354;47.798;12.472;2023-06-01T13:52:09;26.23;44.25
72380;SHT30;60354;47.798;12.472;2023-06-01T13:54:34;26.36;42.01
72380;SHT30;60354;47.798;12.472;2023-06-01T13:57:00;26.36;43.19
72380;SHT30;60354;47.798;12.472;2023-06-01T13:59:28;26.41;42.90
72380;SHT30;60354;47.798;12.472;2023-06-01T14:01:56;26.44;42.95
72380;SHT30;60354;47.798;12.472;2023-06-01T14:04:22;26.00;42.57
72380;SHT30;60354;47.798;12.472;2023-06-01T14:06:47;26.28;43.22
72380;SHT30;60354;47.798;12.472;2023-06-01T14:09:16;26.47;42.48
72380;SHT30;60354;47.798;12.472;2023-06-01T14:11:41;26.45;42.74
72380;SHT30;60354;47.798;12.472;2023-06-01T14:14:08;26.10;42.66
72380;SHT30;60354;47.798;12.472;2023-06-01T14:16:33;26.18;43.02
72380;SHT30;60354;47.798;12.472;2023-06-01T14:18:59;26.12;41.40
72380;SHT30;60354;47.798;12.472;2023-06-01T14:21:24;26.17;42.54
72380;SHT30;60354;47.798;12.472;2023-06-01T14:23:50;25.96;41.26
72380;SHT30;60354;47.798;12.472;2023-06-01T14:26:16;26.01;40.67
72380;SHT30;60354;47.798;12.472;2023-06-01T14:28:41;26.10;41.52
72380;SHT30;60354;47.798;12.472;2023-06-01T14:31:07;26.21;40.26
72380;SHT30;60354;47.798;12.472;2023-06-01T14:33:32;26.23;41.23
72380;SHT30;60354;47.798;12.472;2023-06-01T14:35:58;26.13;40.78
72380;SHT30;60354;47.798;12.472;2023-06-01T14:38:24;26.07;39.07
72380;SHT30;60354;47.798;12.472;2023-06-01T14:40:49;26.30;40.85
72380;SHT30;60354;47.798;12.472;2023-06-01T14:43:15;26.41;41.67
72380;SHT30;60354;47.798;12.472;2023-06-01T14:45:40;26.34;40.95
72380;SHT30;60354;47.798;12.472;2023-06-01T14:48:06;25.98;40.33
72380;SHT30;60354;47.798;12.472;2023-06-01T14:50:31;26.01;40.50
72380;SHT30;60354;47.798;12.472;2023-06-01T14:52:57;26.01;41.98
72380;SHT30;60354;47.798;12.472;2023-06-01T14:55:27;26.04;42.89
72380;SHT30;60354;47.798;12.472;2023-06-01T14:57:53;26.01;41.97
72380;SHT30;60354;47.798;12.472;2023-06-01T15:00:20;25.93;42.39
72380;SHT30;60354;47.798;12.472;2023-06-01T15:02:46;25.80;43.04
72380;SHT30;60354;47.798;12.472;2023-06-01T15:05:12;25.50;44.10
72380;SHT30;60354;47.798;12.472;2023-06-01T15:07:37;25.55;44.18
72380;SHT30;60354;47.798;12.472;2023-06-01T15:10:03;25.53;43.75
72380;SHT30;60354;47.798;12.472;2023-06-01T15:12:29;25.66;42.69
72380;SHT30;60354;47.798;12.472;2023-06-01T15:14:55;25.63;43.11
72380;SHT30;60354;47.798;12.472;2023-06-01T15:17:21;25.63;43.48
72380;SHT30;60354;47.798;12.472;2023-06-01T15:19:46;25.46;44.40
72380;SHT30;60354;47.798;12.472;2023-06-01T15:22:13;25.50;44.11
72380;SHT30;60354;47.798;12.472;2023-06-01T15:24:38;25.53;43.04
72380;SHT30;60354;47.798;12.472;2023-06-01T15:27:06;25.61;43.93
72380;SHT30;60354;47.798;12.472;2023-06-01T15:29:31;25.58;44.83
72380;SHT30;60354;47.798;12.472;2023-06-01T15:31:57;25.46;43.49
72380;SHT30;60354;47.798;12.472;2023-06-01T15:34:23;25.59;43.72
72380;SHT30;60354;47.798;12.472;2023-06-01T15:36:48;25.31;43.89
72380;SHT30;60354;47.798;12.472;2023-06-01T15:39:13;25.22;44.77
72380;SHT30;60354;47.798;12.472;2023-06-01T15:41:41;25.12;44.47
72380;SHT30;60354;47.798;12.472;2023-06-01T15:44:06;24.98;43.81
72380;SHT30;60354;47.798;12.472;2023-06-01T15:46:32;24.97;44.53
72380;SHT30;60354;47.798;12.472;2023-06-01T15:48:57;24.91;44.26
72380;SHT30;60354;47.798;12.472;2023-06-01T15:51:23;25.01;44.69
72380;SHT30;60354;47.798;12.472;2023-06-01T15:53:49;25.22;44.00
72380;SHT30;60354;47.798;12.472;2023-06-01T15:56:16;25.19;44.20
72380;SHT30;60354;47.798;12.472;2023-06-01T15:58:42;25.14;44.15
72380;SHT30;60354;47.798;12.472;2023-06-01T16:01:08;25.10;43.34
72380;SHT30;60354;47.798;12.472;2023-06-01T16:03:33;25.07;43.20
72380;SHT30;60354;47.798;12.472;2023-06-01T16:05:59;25.19;43.81
72380;SHT30;60354;47.798;12.472;2023-06-01T16:08:25;25.17;44.10
72380;SHT30;60354;47.798;12.472;2023-06-01T16:10:50;25.19;43.77
72380;SHT30;60354;47.798;12.472;2023-06-01T16:13:16;25.11;42.99
72380;SHT30;60354;47.798;12.472;2023-06-01T16:15:42;25.08;44.45
72380;SHT30;60354;47.798;12.472;2023-06-01T16:18:07;24.98;44.05